Time;durP1;ratioP1;P1;durP2;ratioP2;P2;SDS_P1;SDS_P2;PMS_P1;PMS_P2;Temp;Humidity;BMP_temperature;BMP_pressure;BME280_temperature;BME280_humidity;BME280_pressure;Samples;Min_cycle;Max_cycle;Signal;HPM_P1;HPM_P2
2022/11/13 00:00:57;;;;;;;25.58;18.33;;;8.70;99.90;;;;;;5052149;28;20372;-61
2022/11/13 00:03:23;;;;;;;24.25;18.92;;;8.40;99.90;;;;;;5052528;28;20521;-61
2022/11/13 00:05:58;;;;;;;26.73;18.73;;;9.20;99.90;;;;;;5050926;28;20074;-61
2022/11/13 00:08:24;;;;;;;24.85;17.85;;;8.80;99.90;;;;;;5048908;28;20410;-61
2022/11/13 00:10:49;;;;;;;26.42;18.23;;;8.80;99.90;;;;;;5052373;28;20110;-61
2022/11/13 00:13:15;;;;;;;25.50;18.70;;;8.20;99.90;;;;;;5052699;28;20076;-61
2022/11/13 00:15:40;;;;;;;24.63;19.10;;;8.40;99.90;;;;;;5052429;28;20040;-61
2022/11/13 00:18:06;;;;;;;21.92;17.95;;;8.70;99.90;;;;;;5045208;28;20038;-61
2022/11/13 00:20:31;;;;;;;25.38;19.38;;;8.90;99.90;;;;;;5041024;28;20047;-61
2022/11/13 00:22:57;;;;;;;26.05;19.75;;;9.30;99.90;;;;;;5051608;28;20041;-61
2022/11/13 00:25:22;;;;;;;24.25;18.88;;;8.80;99.90;;;;;;5051352;28;20531;-61
2022/11/13 00:27:48;;;;;;;24.20;19.17;;;8.60;99.90;;;;;;5048656;28;20029;-61
2022/11/13 00:30:14;;;;;;;23.35;18.38;;;8.40;99.90;;;;;;5036435;28;20102;-61
2022/11/13 00:32:40;;;;;;;26.30;18.77;;;8.30;99.90;;;;;;5052129;28;20055;-61
2022/11/13 00:35:06;;;;;;;25.13;19.13;;;9.30;99.90;;;;;;5050005;28;20037;-61
2022/11/13 00:37:31;;;;;;;24.33;19.42;;;8.40;99.90;;;;;;5050197;28;20437;-61
2022/11/13 00:39:57;;;;;;;25.60;19.98;;;8.50;99.90;;;;;;5049499;28;20102;-61
2022/11/13 00:42:22;;;;;;;24.85;18.90;;;8.50;99.90;;;;;;5051973;28;20047;-61
2022/11/13 00:44:48;;;;;;;26.42;19.50;;;9.00;99.90;;;;;;5048529;28;20129;-61
2022/11/13 00:47:13;;;;;;;22.38;18.83;;;9.00;99.90;;;;;;5046923;28;20124;-61
2022/11/13 00:49:39;;;;;;;23.52;18.83;;;8.90;99.90;;;;;;5050787;28;20044;-61
2022/11/13 00:52:05;;;;;;;26.27;20.50;;;9.30;99.90;;;;;;5050632;28;20033;-61
2022/11/13 00:54:30;;;;;;;25.20;19.90;;;8.60;99.90;;;;;;5050645;28;20102;-61
2022/11/13 00:56:56;;;;;;;28.80;21.20;;;8.90;99.90;;;;;;5051734;28;20491;-61
2022/11/13 00:59:21;;;;;;;31.38;20.50;;;9.50;99.90;;;;;;5051536;28;20040;-61
2022/11/13 01:01:47;;;;;;;23.55;20.38;;;9.00;99.90;;;;;;5050054;28;20055;-61
2022/11/13 01:04:12;;;;;;;26.23;19.70;;;8.60;99.90;;;;;;5050500;28;20163;-61
2022/11/13 01:06:38;;;;;;;27.92;19.67;;;9.50;99.90;;;;;;5048881;28;20043;-61
2022/11/13 01:09:03;;;;;;;24.95;20.30;;;8.90;99.90;;;;;;5050964;28;20039;-61
2022/11/13 01:11:29;;;;;;;25.17;19.35;;;8.60;99.90;;;;;;5048822;28;20361;-61
2022/11/13 01:13:56;;;;;;;22.13;16.95;;;9.40;99.90;;;;;;5051555;28;20132;-61
2022/11/13 01:16:24;;;;;;;20.00;15.45;;;9.40;99.90;;;;;;5049288;28;20049;-61
2022/11/13 01:18:51;;;;;;;21.80;16.65;;;8.30;99.90;;;;;;5050843;28;20041;-61
2022/11/13 01:21:19;;;;;;;21.40;16.92;;;9.10;99.90;;;;;;5050138;28;20041;-62
2022/11/13 01:23:45;;;;;;;22.23;16.20;;;9.20;99.90;;;;;;5050689;28;20128;-61
2022/11/13 01:26:14;;;;;;;23.90;17.40;;;8.50;99.90;;;;;;5049525;28;20043;-61
2022/11/13 01:28:42;;;;;;;23.13;18.00;;;9.20;99.90;;;;;;5051576;28;20538;-61
2022/11/13 01:31:10;;;;;;;28.27;19.00;;;8.60;99.90;;;;;;5046459;28;20094;-61
2022/11/13 01:33:36;;;;;;;21.48;17.95;;;8.70;99.90;;;;;;5036627;28;20505;-61
2022/11/13 01:36:08;;;;;;;22.30;16.48;;;8.30;99.90;;;;;;5050915;28;20029;-61
2022/11/13 01:38:34;;;;;;;22.17;17.00;;;8.40;99.90;;;;;;5050562;28;20548;-61
2022/11/13 01:40:59;;;;;;;22.23;17.92;;;8.60;99.90;;;;;;5050151;28;20033;-61
2022/11/13 01:43:28;;;;;;;25.25;16.63;;;9.40;99.90;;;;;;5051174;28;20377;-61
2022/11/13 01:45:56;;;;;;;22.67;17.65;;;9.20;99.90;;;;;;5050456;28;20383;-61
2022/11/13 01:48:23;;;;;;;25.05;17.08;;;8.30;99.90;;;;;;5051112;28;20083;-61
2022/11/13 01:50:49;;;;;;;22.77;16.88;;;8.50;99.90;;;;;;5049411;28;20495;-61
2022/11/13 01:53:15;;;;;;;21.17;16.52;;;8.70;99.90;;;;;;5050723;28;20170;-61
2022/11/13 01:55:40;;;;;;;24.95;16.95;;;8.40;99.90;;;;;;5050820;28;20037;-61
2022/11/13 01:58:09;;;;;;;19.75;16.65;;;9.00;99.90;;;;;;5049717;28;20245;-60
2022/11/13 02:00:34;;;;;;;21.83;16.67;;;8.60;99.90;;;;;;5050475;28;20049;-61
2022/11/13 02:03:00;;;;;;;20.80;15.88;;;8.20;99.90;;;;;;5050634;28;20040;-61
2022/11/13 02:05:26;;;;;;;21.00;16.05;;;8.20;99.90;;;;;;5052180;28;20521;-61
2022/11/13 02:07:51;;;;;;;21.23;16.98;;;9.00;99.90;;;;;;5054615;28;20036;-61
2022/11/13 02:10:17;;;;;;;22.90;17.17;;;8.70;99.90;;;;;;5054046;28;20041;-60
2022/11/13 02:12:48;;;;;;;26.52;17.42;;;8.60;99.90;;;;;;5048588;28;20064;-61
2022/11/13 02:15:16;;;;;;;23.83;16.45;;;9.00;99.90;;;;;;5048348;28;20148;-62
2022/11/13 02:17:46;;;;;;;22.95;15.85;;;8.10;99.90;;;;;;5054244;28;20041;-61
2022/11/13 02:20:12;;;;;;;22.08;17.67;;;8.70;99.90;;;;;;5054518;28;20576;-61
2022/11/13 02:22:51;;;;;;;23.52;16.65;;;8.70;99.90;;;;;;5053328;28;20486;-61
2022/11/13 02:25:18;;;;;;;22.17;17.02;;;7.90;99.90;;;;;;5052592;28;20049;-61
2022/11/13 02:27:46;;;;;;;19.80;16.75;;;8.00;99.90;;;;;;5039713;28;20044;-61
2022/11/13 02:30:19;;;;;;;21.63;17.50;;;8.40;99.90;;;;;;5054178;28;20036;-61
2022/11/13 02:32:50;;;;;;;23.95;16.05;;;8.80;99.90;;;;;;5052073;28;20494;-61
2022/11/13 02:35:34;;;;;;;23.02;16.90;;;8.30;99.90;;;;;;5051345;28;20033;-61
2022/11/13 02:38:02;;;;;;;22.80;17.15;;;8.20;99.90;;;;;;5043584;28;20048;-61
2022/11/13 02:40:29;;;;;;;22.23;16.45;;;8.90;99.90;;;;;;5052764;28;20040;-61
2022/11/13 02:42:55;;;;;;;21.98;17.17;;;8.30;99.90;;;;;;5053202;28;20033;-61
2022/11/13 02:45:20;;;;;;;19.50;16.35;;;8.80;99.90;;;;;;5054167;28;20041;-61
2022/11/13 02:47:46;;;;;;;27.90;17.75;;;8.20;99.90;;;;;;5054198;28;20320;-60
2022/11/13 02:50:13;;;;;;;20.20;15.77;;;8.40;99.90;;;;;;5054514;28;20087;-60
2022/11/13 02:52:39;;;;;;;25.85;17.13;;;8.80;99.90;;;;;;5053151;28;20466;-61
2022/11/13 02:55:05;;;;;;;22.42;17.15;;;7.90;99.90;;;;;;5053856;28;20060;-61
2022/11/13 02:57:31;;;;;;;24.17;18.15;;;8.40;99.90;;;;;;5052621;28;20044;-61
2022/11/13 02:59:57;;;;;;;27.45;18.35;;;8.50;99.90;;;;;;5052026;28;20449;-61
2022/11/13 03:02:23;;;;;;;22.67;16.83;;;8.20;99.90;;;;;;5052162;28;20033;-61
2022/11/13 03:04:48;;;;;;;28.65;18.73;;;7.80;99.90;;;;;;5053707;28;20103;-61
2022/11/13 03:07:14;;;;;;;23.45;17.67;;;8.70;99.90;;;;;;5053615;28;20120;-61
2022/11/13 03:09:40;;;;;;;24.30;17.63;;;7.80;99.90;;;;;;5053149;28;20388;-61
2022/11/13 03:12:07;;;;;;;23.70;17.55;;;8.70;99.90;;;;;;5052122;28;20095;-61
2022/11/13 03:14:32;;;;;;;22.27;16.25;;;7.90;99.90;;;;;;5053599;28;20433;-61
2022/11/13 03:16:58;;;;;;;24.77;15.65;;;7.90;99.90;;;;;;5052596;28;20040;-61
2022/11/13 03:19:23;;;;;;;23.25;15.85;;;8.90;99.90;;;;;;5053724;28;20100;-61
2022/11/13 03:21:49;;;;;;;21.05;15.40;;;8.70;99.90;;;;;;5051204;28;20380;-61
2022/11/13 03:24:15;;;;;;;22.13;16.30;;;8.70;99.90;;;;;;5053323;28;20041;-61
2022/11/13 03:26:40;;;;;;;19.45;16.77;;;8.00;99.90;;;;;;5052760;28;20453;-61
2022/11/13 03:29:06;;;;;;;25.77;18.02;;;8.00;99.90;;;;;;5052917;28;20037;-61
2022/11/13 03:31:31;;;;;;;22.55;16.90;;;8.20;99.90;;;;;;5052390;28;20335;-61
2022/11/13 03:33:57;;;;;;;23.00;17.17;;;8.20;99.90;;;;;;5053122;28;20048;-61
2022/11/13 03:36:23;;;;;;;21.90;17.65;;;9.20;99.90;;;;;;5052439;28;20520;-61
2022/11/13 03:38:49;;;;;;;23.67;17.52;;;9.40;99.90;;;;;;5053433;28;20383;-61
2022/11/13 03:41:14;;;;;;;22.42;18.08;;;9.40;99.90;;;;;;5051833;28;20415;-61
2022/11/13 03:43:40;;;;;;;21.90;16.52;;;9.40;99.90;;;;;;5050907;28;20040;-61
2022/11/13 03:46:06;;;;;;;19.27;15.32;;;8.70;99.90;;;;;;5052856;28;20047;-61
2022/11/13 03:48:32;;;;;;;23.55;15.93;;;9.30;99.90;;;;;;5051632;28;20045;-61
2022/11/13 03:50:58;;;;;;;21.52;16.25;;;9.30;99.90;;;;;;5048594;28;20037;-61
2022/11/13 03:53:23;;;;;;;20.10;15.32;;;8.90;99.90;;;;;;5050957;28;20041;-60
2022/11/13 03:55:49;;;;;;;18.90;14.82;;;8.70;99.90;;;;;;5051557;28;20039;-61
2022/11/13 03:58:15;;;;;;;19.60;15.23;;;8.90;99.90;;;;;;5052310;28;20082;-61
2022/11/13 04:00:42;;;;;;;18.60;14.57;;;9.10;99.90;;;;;;5051671;28;20790;-61
2022/11/13 04:03:07;;;;;;;18.48;14.45;;;9.10;99.90;;;;;;5052053;28;20049;-61
2022/11/13 04:05:33;;;;;;;19.08;15.02;;;9.10;99.90;;;;;;5050728;28;20534;-60
2022/11/13 04:07:59;;;;;;;19.40;15.27;;;8.10;99.90;;;;;;5049363;28;20040;-61
2022/11/13 04:10:25;;;;;;;17.75;14.45;;;7.90;99.90;;;;;;5049654;28;20401;-61
2022/11/13 04:12:51;;;;;;;19.20;15.55;;;8.40;99.90;;;;;;5051230;28;20497;-61
2022/11/13 04:15:16;;;;;;;22.05;16.02;;;7.90;99.90;;;;;;5052127;28;20029;-62
2022/11/13 04:17:42;;;;;;;20.05;14.93;;;8.30;99.90;;;;;;5051254;28;20450;-61
2022/11/13 04:20:08;;;;;;;22.90;15.77;;;8.90;99.90;;;;;;5051061;28;20052;-61
2022/11/13 04:22:34;;;;;;;27.13;15.90;;;8.70;99.90;;;;;;5051395;28;20040;-61
2022/11/13 04:24:59;;;;;;;18.23;15.40;;;9.00;99.90;;;;;;5052207;28;20041;-61
2022/11/13 04:27:25;;;;;;;19.92;14.32;;;8.00;99.90;;;;;;5050186;28;20497;-61
2022/11/13 04:29:51;;;;;;;21.38;15.90;;;7.90;99.90;;;;;;5052157;28;20536;-61
2022/11/13 04:32:16;;;;;;;19.38;15.30;;;8.70;99.90;;;;;;5050965;28;20498;-61
2022/11/13 04:34:42;;;;;;;21.17;15.88;;;8.20;99.90;;;;;;5051492;28;20124;-61
2022/11/13 04:37:07;;;;;;;22.35;15.57;;;9.10;99.90;;;;;;5051474;28;20041;-61
2022/11/13 04:39:33;;;;;;;18.67;13.70;;;8.50;99.90;;;;;;5051969;28;20405;-61
2022/11/13 04:44:43;;;;;;;20.55;15.27;;;8.50;99.90;;;;;;5036723;28;20044;-61
2022/11/13 04:47:08;;;;;;;20.00;14.25;;;9.50;99.90;;;;;;5052199;28;20459;-61
2022/11/13 04:49:34;;;;;;;18.80;13.30;;;9.20;99.90;;;;;;5051788;28;20414;-61
2022/11/13 04:52:00;;;;;;;23.88;13.50;;;9.30;99.90;;;;;;5050757;28;20453;-62
2022/11/13 04:54:25;;;;;;;20.35;13.98;;;9.20;99.90;;;;;;5042752;28;20121;-61
2022/11/13 04:56:51;;;;;;;18.95;14.80;;;8.80;99.90;;;;;;5051326;28;20398;-61
2022/11/13 04:59:16;;;;;;;18.80;14.23;;;9.20;99.90;;;;;;5051597;28;20450;-61
2022/11/13 05:01:42;;;;;;;20.65;13.88;;;8.70;99.90;;;;;;5050614;28;20490;-61
2022/11/13 05:04:13;;;;;;;19.52;14.82;;;9.50;99.90;;;;;;5046553;28;20173;-61
2022/11/13 05:06:39;;;;;;;20.30;14.50;;;8.70;99.90;;;;;;5045054;28;20033;-61
2022/11/13 05:09:04;;;;;;;25.20;16.30;;;9.30;99.90;;;;;;5051238;28;20051;-61
2022/11/13 05:11:30;;;;;;;21.80;14.60;;;9.50;99.90;;;;;;5050182;28;20082;-61
2022/11/13 05:13:55;;;;;;;19.75;15.15;;;9.00;99.90;;;;;;5051165;28;20066;-61
2022/11/13 05:16:21;;;;;;;21.08;14.23;;;9.40;99.90;;;;;;5048970;28;20103;-61
2022/11/13 05:18:46;;;;;;;17.10;13.77;;;9.10;99.90;;;;;;5051427;28;20174;-61
2022/11/13 05:21:12;;;;;;;20.33;15.27;;;9.00;99.90;;;;;;5048748;28;20044;-61
2022/11/13 05:23:38;;;;;;;21.42;15.82;;;9.50;99.90;;;;;;5041601;28;20265;-61
2022/11/13 05:26:10;;;;;;;21.35;14.55;;;8.60;99.90;;;;;;5049009;28;20052;-61
2022/11/13 05:28:36;;;;;;;23.13;14.48;;;8.60;99.90;;;;;;5050342;28;20163;-61
2022/11/13 05:31:08;;;;;;;20.98;15.45;;;8.90;99.90;;;;;;5050444;28;20115;-61
2022/11/13 05:33:35;;;;;;;22.35;15.18;;;8.70;99.90;;;;;;5050690;28;20041;-61
2022/11/13 05:36:02;;;;;;;20.30;14.23;;;9.20;99.90;;;;;;5050253;28;20036;-61
2022/11/13 05:38:28;;;;;;;19.33;14.25;;;9.50;99.90;;;;;;5051349;28;20544;-61
2022/11/13 05:40:53;;;;;;;17.67;14.35;;;9.00;99.90;;;;;;5049409;28;20048;-61
2022/11/13 05:43:19;;;;;;;20.90;15.18;;;9.20;99.90;;;;;;5049822;28;20047;-61
2022/11/13 05:45:45;;;;;;;19.17;14.45;;;8.40;99.90;;;;;;5050426;28;20077;-60
2022/11/13 05:48:10;;;;;;;15.43;12.70;;;9.10;99.90;;;;;;5050966;28;20083;-61
2022/11/13 05:50:36;;;;;;;18.38;13.82;;;8.40;99.90;;;;;;5051172;28;20040;-61
2022/11/13 05:53:01;;;;;;;18.83;14.13;;;9.20;99.90;;;;;;5050276;28;20037;-61
2022/11/13 05:55:27;;;;;;;20.30;14.90;;;9.00;99.90;;;;;;5049977;28;20604;-60
2022/11/13 05:57:52;;;;;;;21.98;16.00;;;8.50;99.90;;;;;;5046625;28;20514;-61
2022/11/13 06:00:18;;;;;;;20.05;15.90;;;8.60;99.90;;;;;;5038488;28;20041;-61
2022/11/13 06:02:43;;;;;;;21.02;15.18;;;9.40;99.90;;;;;;5049986;28;20041;-61
2022/11/13 06:05:09;;;;;;;18.92;14.20;;;8.80;99.90;;;;;;5050718;28;20079;-61
2022/11/13 06:07:34;;;;;;;20.10;14.93;;;8.30;99.90;;;;;;5047151;28;20433;-61
2022/11/13 06:10:00;;;;;;;20.02;14.45;;;8.20;99.90;;;;;;5050802;28;20037;-61
2022/11/13 06:12:26;;;;;;;18.77;14.27;;;8.20;99.90;;;;;;5050390;28;20529;-61
2022/11/13 06:14:51;;;;;;;20.67;14.70;;;9.30;99.90;;;;;;5050849;28;20491;-61
2022/11/13 06:17:17;;;;;;;24.23;14.73;;;9.10;99.90;;;;;;5050003;28;20509;-61
2022/11/13 06:19:43;;;;;;;21.67;16.10;;;9.00;99.90;;;;;;5050163;28;20083;-61
2022/11/13 06:22:09;;;;;;;19.95;15.02;;;8.80;99.90;;;;;;5049426;28;20490;-61
2022/11/13 06:24:34;;;;;;;19.48;14.07;;;8.40;99.90;;;;;;5050612;28;20399;-61
2022/11/13 06:27:00;;;;;;;20.98;15.50;;;9.30;99.90;;;;;;5048676;28;20029;-61
2022/11/13 06:29:25;;;;;;;21.05;15.57;;;9.30;99.90;;;;;;5049641;28;20039;-61
2022/11/13 06:31:51;;;;;;;19.45;15.07;;;8.40;99.90;;;;;;5050348;28;20040;-61
2022/11/13 06:34:16;;;;;;;18.45;13.25;;;8.90;99.90;;;;;;5049480;28;20052;-61
2022/11/13 06:36:42;;;;;;;20.25;13.98;;;9.10;99.90;;;;;;5049726;28;20041;-61
2022/11/13 06:39:08;;;;;;;19.55;14.77;;;8.50;99.90;;;;;;5049979;28;20407;-61
2022/11/13 06:41:34;;;;;;;20.35;14.95;;;9.50;99.90;;;;;;5050161;28;20398;-61
2022/11/13 06:44:00;;;;;;;19.80;13.75;;;8.70;99.90;;;;;;5049166;28;20123;-61
2022/11/13 06:46:27;;;;;;;22.13;14.80;;;9.20;99.90;;;;;;5050627;28;20068;-60
2022/11/13 06:48:53;;;;;;;18.70;13.90;;;8.50;99.90;;;;;;5038732;28;20049;-61
2022/11/13 06:51:25;;;;;;;21.95;14.40;;;9.40;99.90;;;;;;5045625;28;20030;-61
2022/11/13 06:53:51;;;;;;;19.23;15.40;;;9.00;99.90;;;;;;5035603;28;20538;-61
2022/11/13 06:56:17;;;;;;;22.25;16.27;;;8.80;99.90;;;;;;5053799;28;20083;-62
2022/11/13 06:58:43;;;;;;;20.08;15.52;;;8.40;99.90;;;;;;5053437;28;20029;-61
2022/11/13 07:01:18;;;;;;;21.52;16.95;;;9.30;99.90;;;;;;5053549;28;20406;-61
2022/11/13 07:03:43;;;;;;;19.88;15.80;;;9.10;99.90;;;;;;5053775;28;20136;-61
2022/11/13 07:06:15;;;;;;;20.17;15.70;;;9.40;99.90;;;;;;5045939;28;20595;-61
2022/11/13 07:08:42;;;;;;;21.52;16.50;;;9.40;99.90;;;;;;5043900;28;20041;-61
2022/11/13 07:11:10;;;;;;;19.27;16.02;;;9.00;99.90;;;;;;5045074;28;20053;-61
2022/11/13 07:13:37;;;;;;;19.20;14.10;;;8.60;99.90;;;;;;5052094;28;20029;-61
2022/11/13 07:16:04;;;;;;;16.25;13.00;;;9.30;99.90;;;;;;5045775;28;20040;-61
2022/11/13 07:18:30;;;;;;;20.65;14.68;;;8.80;99.90;;;;;;5050296;28;20559;-61
2022/11/13 07:20:56;;;;;;;22.45;14.40;;;8.50;99.90;;;;;;5049722;28;20040;-61
2022/11/13 07:23:22;;;;;;;18.75;12.52;;;8.60;99.90;;;;;;5046104;28;20048;-61
2022/11/13 07:25:48;;;;;;;19.10;14.40;;;9.40;99.90;;;;;;5048200;28;20395;-61
2022/11/13 07:28:13;;;;;;;18.63;13.18;;;8.50;99.90;;;;;;5050859;28;20037;-61
2022/11/13 07:30:39;;;;;;;19.42;13.05;;;8.50;99.90;;;;;;5053094;28;20044;-61
2022/11/13 07:33:05;;;;;;;19.67;12.43;;;9.30;99.90;;;;;;5049031;28;20033;-62
2022/11/13 07:35:30;;;;;;;21.58;14.38;;;9.20;99.90;;;;;;5042006;28;20040;-61
2022/11/13 07:37:57;;;;;;;23.35;15.15;;;9.60;99.90;;;;;;5052707;28;20029;-62
2022/11/13 07:40:22;;;;;;;19.75;14.68;;;9.70;99.90;;;;;;5053138;28;20033;-62
2022/11/13 07:42:56;;;;;;;19.65;14.73;;;8.90;99.90;;;;;;5051144;28;20112;-61
2022/11/13 07:45:21;;;;;;;20.02;12.57;;;9.90;99.90;;;;;;5049840;28;20395;-62
2022/11/13 07:47:47;;;;;;;16.63;13.63;;;9.30;99.90;;;;;;5050551;28;20045;-61
2022/11/13 07:50:12;;;;;;;19.00;12.55;;;9.70;99.90;;;;;;5050403;28;20076;-61
2022/11/13 07:52:38;;;;;;;16.75;13.10;;;9.70;99.90;;;;;;5050574;28;20036;-61
2022/11/13 07:55:04;;;;;;;20.63;14.30;;;10.00;99.90;;;;;;5050233;28;20499;-61
2022/11/13 07:57:30;;;;;;;19.42;13.93;;;10.30;99.90;;;;;;5051338;28;20033;-62
2022/11/13 07:59:55;;;;;;;17.50;13.63;;;10.00;99.90;;;;;;5046287;28;20449;-61
2022/11/13 08:02:21;;;;;;;21.35;14.52;;;10.30;99.90;;;;;;5046001;28;20108;-61
2022/11/13 08:04:46;;;;;;;20.15;13.55;;;9.60;99.90;;;;;;5046595;28;20086;-61
2022/11/13 08:07:12;;;;;;;19.17;14.63;;;9.40;99.90;;;;;;5046961;28;20076;-61
2022/11/13 08:09:38;;;;;;;17.60;13.20;;;9.50;99.90;;;;;;5045595;28;20044;-61
2022/11/13 08:12:03;;;;;;;16.67;12.88;;;9.60;99.90;;;;;;5049595;28;20144;-61
2022/11/13 08:14:29;;;;;;;17.75;12.45;;;9.60;99.90;;;;;;5049292;28;20075;-62
2022/11/13 08:16:54;;;;;;;16.48;12.57;;;10.40;99.90;;;;;;5049451;28;20045;-61
2022/11/13 08:19:20;;;;;;;15.32;11.43;;;9.80;99.90;;;;;;5048606;28;20119;-61
2022/11/13 08:21:46;;;;;;;20.02;13.15;;;10.70;99.90;;;;;;5046177;28;20888;-61
2022/11/13 08:24:11;;;;;;;22.38;13.20;;;10.30;99.90;;;;;;5043166;28;20049;-62
2022/11/13 08:26:37;;;;;;;18.63;13.60;;;10.50;99.90;;;;;;5050052;28;20418;-61
2022/11/13 08:29:03;;;;;;;16.58;12.95;;;11.10;99.90;;;;;;5049642;28;20033;-61
2022/11/13 08:31:28;;;;;;;18.13;12.07;;;10.00;99.90;;;;;;5050861;28;20040;-62
2022/11/13 08:33:54;;;;;;;18.38;12.40;;;10.20;99.90;;;;;;5051416;28;20503;-61
2022/11/13 08:36:19;;;;;;;21.00;12.48;;;10.10;99.90;;;;;;5051890;28;20041;-62
2022/11/13 08:38:47;;;;;;;19.35;11.85;;;10.20;99.90;;;;;;5051862;28;20051;-62
2022/11/13 08:41:12;;;;;;;15.82;12.05;;;10.10;99.90;;;;;;5049703;28;20742;-61
2022/11/13 08:43:38;;;;;;;17.83;12.98;;;10.40;99.90;;;;;;5049890;28;20033;-61
2022/11/13 08:46:03;;;;;;;17.25;11.93;;;10.70;99.90;;;;;;5049868;28;20043;-62
2022/11/13 08:48:29;;;;;;;18.45;12.07;;;11.10;99.90;;;;;;5050901;28;20433;-62
2022/11/13 08:50:56;;;;;;;16.88;11.77;;;10.40;99.90;;;;;;5051049;28;20064;-62
2022/11/13 08:53:22;;;;;;;18.83;12.27;;;10.40;99.90;;;;;;5049969;28;20045;-62
2022/11/13 08:55:48;;;;;;;16.48;12.73;;;11.30;99.90;;;;;;5050718;28;20051;-62
2022/11/13 08:58:13;;;;;;;18.17;12.20;;;10.80;99.90;;;;;;5051161;28;20036;-62
2022/11/13 09:00:39;;;;;;;15.95;12.88;;;11.00;99.90;;;;;;5050627;28;20037;-62
2022/11/13 09:03:05;;;;;;;14.60;11.93;;;11.50;99.90;;;;;;5044843;28;20400;-62
2022/11/13 09:05:31;;;;;;;14.32;11.68;;;10.90;99.90;;;;;;5044337;28;20032;-62
2022/11/13 09:07:58;;;;;;;15.75;12.02;;;11.30;99.90;;;;;;5047166;28;20090;-62
2022/11/13 09:10:25;;;;;;;15.45;11.05;;;11.70;99.90;;;;;;5043563;28;20029;-62
2022/11/13 09:13:00;;;;;;;16.65;11.80;;;10.90;99.90;;;;;;5045531;28;20037;-62
2022/11/13 09:15:26;;;;;;;14.93;11.88;;;11.10;99.90;;;;;;5043850;28;20503;-62
2022/11/13 09:17:56;;;;;;;17.00;10.93;;;11.30;99.90;;;;;;5048196;28;20040;-62
2022/11/13 09:20:22;;;;;;;14.00;11.30;;;12.20;99.90;;;;;;5048579;28;20510;-62
2022/11/13 09:22:47;;;;;;;18.83;12.48;;;11.50;99.90;;;;;;5049824;28;20044;-62
2022/11/13 09:25:13;;;;;;;13.32;10.18;;;11.90;99.90;;;;;;5045380;28;20037;-62
2022/11/13 09:27:38;;;;;;;14.70;10.68;;;12.10;99.90;;;;;;5045844;28;20402;-63
2022/11/13 09:30:04;;;;;;;15.93;11.13;;;12.30;99.90;;;;;;5047007;28;20045;-64
2022/11/13 09:32:30;;;;;;;15.15;11.55;;;12.50;99.90;;;;;;5028522;28;20036;-63
2022/11/13 09:34:55;;;;;;;15.57;10.52;;;12.60;99.90;;;;;;5045758;28;20461;-63
2022/11/13 09:37:21;;;;;;;12.43;10.48;;;12.80;99.90;;;;;;5043876;28;20041;-62
2022/11/13 09:39:46;;;;;;;12.20;9.80;;;12.80;99.90;;;;;;5048032;28;20041;-64
2022/11/13 09:42:20;;;;;;;16.30;10.90;;;13.60;99.90;;;;;;5049476;28;20057;-65
2022/11/13 09:44:47;;;;;;;15.07;10.13;;;13.40;99.90;;;;;;5046535;28;20045;-65
2022/11/13 09:47:23;;;;;;;13.40;10.32;;;13.10;99.90;;;;;;5049491;28;20029;-65
2022/11/13 09:50:02;;;;;;;15.23;10.75;;;13.50;99.90;;;;;;5050885;28;20044;-64
2022/11/13 09:52:34;;;;;;;13.95;9.63;;;13.30;99.90;;;;;;5049605;28;20493;-65
2022/11/13 09:55:00;;;;;;;12.00;9.38;;;13.80;99.90;;;;;;5050461;28;20095;-65
2022/11/13 09:57:41;;;;;;;14.90;9.40;;;13.50;99.90;;;;;;5050370;28;20033;-64
2022/11/13 10:00:14;;;;;;;10.68;8.70;;;13.40;99.90;;;;;;5049758;28;20087;-64
2022/11/13 10:03:33;;;;;;;10.10;8.07;;;13.40;99.90;;;;;;5045973;28;20133;-65
2022/11/13 10:06:02;;;;;;;11.68;8.43;;;13.60;99.90;;;;;;4969391;28;20468;-64
2022/11/13 10:09:02;;;;;;;11.02;7.78;;;13.70;99.90;;;;;;5029438;28;20041;-64
2022/11/13 10:11:47;;;;;;;11.82;8.48;;;13.90;99.90;;;;;;5040440;28;20525;-65
2022/11/13 10:14:30;;;;;;;12.02;8.48;;;13.80;99.90;;;;;;5050605;28;20415;-64
2022/11/13 10:17:26;;;;;;;12.52;8.65;;;13.50;99.90;;;;;;5049232;28;20045;-64
2022/11/13 10:19:58;;;;;;;10.70;7.60;;;13.70;99.90;;;;;;5050093;28;20126;-64
2022/11/13 10:22:39;;;;;;;10.07;8.05;;;13.70;99.90;;;;;;5048215;28;20041;-64
2022/11/13 10:25:24;;;;;;;11.73;8.50;;;13.40;99.90;;;;;;5049899;28;20041;-65
2022/11/13 10:27:55;;;;;;;13.05;8.73;;;14.00;99.90;;;;;;5045376;28;20041;-65
2022/11/13 10:30:20;;;;;;;12.25;8.98;;;14.10;99.90;;;;;;5052150;28;20086;-64
2022/11/13 10:32:46;;;;;;;10.85;8.40;;;13.90;99.90;;;;;;5049182;28;20033;-65
2022/11/13 10:35:27;;;;;;;10.77;8.63;;;14.40;99.90;;;;;;5049563;28;20037;-65
2022/11/13 10:38:05;;;;;;;13.55;9.23;;;14.00;99.90;;;;;;5035803;28;20116;-65
2022/11/13 10:40:37;;;;;;;11.68;8.65;;;14.30;99.90;;;;;;5051930;28;20037;-65
2022/11/13 10:43:05;;;;;;;10.77;8.13;;;15.90;99.90;;;;;;5051723;28;20033;-66
2022/11/13 10:45:31;;;;;;;11.35;8.60;;;14.30;99.90;;;;;;5035635;28;20293;-65
2022/11/13 10:47:57;;;;;;;10.43;8.18;;;14.70;99.90;;;;;;5052854;28;20040;-65
2022/11/13 10:50:28;;;;;;;13.00;8.15;;;14.30;99.90;;;;;;5043001;28;20037;-64
2022/11/13 10:52:54;;;;;;;11.48;7.93;;;14.20;99.90;;;;;;5052667;28;20049;-65
2022/11/13 10:55:26;;;;;;;12.40;8.35;;;14.50;99.90;;;;;;5053702;28;20048;-64
2022/11/13 10:58:00;;;;;;;11.27;9.02;;;14.50;99.90;;;;;;5050720;28;20037;-65
2022/11/13 11:00:31;;;;;;;8.23;7.05;;;14.30;99.90;;;;;;5051475;28;20042;-64
2022/11/13 11:02:57;;;;;;;12.50;7.95;;;14.10;99.90;;;;;;5052810;28;20554;-64
2022/11/13 11:05:24;;;;;;;13.10;7.88;;;14.30;99.90;;;;;;5049633;28;20120;-64
2022/11/13 11:07:52;;;;;;;9.55;7.90;;;14.10;99.90;;;;;;5052011;28;20068;-64
2022/11/13 11:10:33;;;;;;;11.13;8.40;;;13.70;99.90;;;;;;5050282;28;20045;-65
2022/11/13 11:13:10;;;;;;;10.63;7.55;;;13.90;99.90;;;;;;5051756;28;20128;-64
2022/11/13 11:15:44;;;;;;;10.98;8.02;;;13.60;99.90;;;;;;5053288;28;20090;-64
2022/11/13 11:18:37;;;;;;;11.35;8.50;;;13.80;99.90;;;;;;5053837;28;20431;-64
2022/11/13 11:21:15;;;;;;;12.18;8.15;;;13.60;99.90;;;;;;5044551;28;20079;-64
2022/11/13 11:23:48;;;;;;;10.18;8.02;;;13.50;99.90;;;;;;5053466;28;20041;-64
2022/11/13 11:26:34;;;;;;;10.50;7.72;;;13.80;99.90;;;;;;5053425;28;20128;-64
2022/11/13 11:29:02;;;;;;;10.45;7.63;;;13.40;99.90;;;;;;5051374;28;20083;-64
2022/11/13 11:31:46;;;;;;;12.70;8.55;;;13.40;99.90;;;;;;5052629;28;20029;-64
2022/11/13 11:34:15;;;;;;;10.70;8.55;;;13.30;99.90;;;;;;5053298;28;20483;-64
2022/11/13 11:36:59;;;;;;;11.75;9.02;;;13.60;99.90;;;;;;5052229;28;20114;-64
2022/11/13 11:39:29;;;;;;;13.20;8.80;;;13.60;99.90;;;;;;5052862;28;20095;-64
2022/11/13 11:42:32;;;;;;;10.50;8.43;;;13.60;99.90;;;;;;5051952;28;20449;-63
2022/11/13 11:45:39;;;;;;;12.57;8.20;;;13.50;99.90;;;;;;5051420;28;20090;-64
2022/11/13 11:48:20;;;;;;;10.18;8.63;;;13.70;99.90;;;;;;5004810;28;20623;-64
2022/11/13 11:51:22;;;;;;;12.60;8.95;;;13.90;99.90;;;;;;4996162;28;20046;-64
2022/11/13 11:54:17;;;;;;;10.65;8.25;;;13.60;99.90;;;;;;5045779;28;20568;-64
2022/11/13 11:57:01;;;;;;;11.98;8.30;;;13.90;99.90;;;;;;5044978;28;20032;-63
2022/11/13 11:59:51;;;;;;;11.13;8.30;;;13.70;99.90;;;;;;5040242;28;20556;-64
2022/11/13 12:02:54;;;;;;;10.60;7.95;;;14.00;99.90;;;;;;5045578;28;20139;-64
2022/11/13 12:05:40;;;;;;;10.02;7.80;;;14.20;99.90;;;;;;5051654;28;20037;-64
2022/11/13 12:08:14;;;;;;;13.02;8.00;;;13.90;99.90;;;;;;5042710;28;20046;-64
2022/11/13 12:10:59;;;;;;;9.85;7.57;;;14.70;99.90;;;;;;5041620;28;20037;-64
2022/11/13 12:13:48;;;;;;;9.48;7.32;;;14.00;99.90;;;;;;5049377;28;20041;-64
2022/11/13 12:16:16;;;;;;;11.85;7.35;;;14.20;99.90;;;;;;5031387;28;20045;-64
2022/11/13 12:19:03;;;;;;;9.82;6.93;;;14.20;99.90;;;;;;5045115;28;20041;-64
2022/11/13 12:21:56;;;;;;;11.55;7.40;;;14.20;99.90;;;;;;5051617;28;20033;-64
2022/11/13 12:24:36;;;;;;;11.90;7.38;;;14.50;99.90;;;;;;5050773;28;20073;-64
2022/11/13 12:27:36;;;;;;;10.27;8.07;;;14.40;99.90;;;;;;5049719;28;20151;-64
2022/11/13 12:30:01;;;;;;;10.50;7.78;;;14.60;99.90;;;;;;5049883;28;20052;-64
2022/11/13 12:32:43;;;;;;;9.43;7.20;;;14.50;99.90;;;;;;5049384;28;20111;-64
2022/11/13 12:35:18;;;;;;;10.88;7.53;;;14.70;99.90;;;;;;5051990;28;20048;-64
2022/11/13 12:38:14;;;;;;;9.88;7.28;;;14.40;99.90;;;;;;5051571;28;20120;-64
2022/11/13 12:40:45;;;;;;;9.18;6.30;;;14.50;99.90;;;;;;5050883;28;20033;-65
2022/11/13 12:43:45;;;;;;;8.80;6.00;;;14.80;99.90;;;;;;5049154;28;20052;-65
2022/11/13 12:46:11;;;;;;;8.55;6.10;;;14.90;99.90;;;;;;5042604;28;20083;-65
2022/11/13 12:48:43;;;;;;;10.57;6.53;;;14.80;99.90;;;;;;5040522;28;20132;-65